createdAt,value
2022-09-12T00:18:36.684Z,80.0
2022-09-12T01:19:21.942Z,81.5
2022-09-12T01:38:36.699Z,82.0
2022-09-12T03:37:51.477Z,84.0
2022-09-12T06:17:51.614Z,87.0
2022-09-12T06:39:22.055Z,88.0
2022-09-12T06:58:36.813Z,88.0
2022-09-12T07:39:22.094Z,88.0
2022-09-12T08:17:51.599Z,84.5
2022-09-12T08:59:22.140Z,79.0
2022-09-12T09:17:51.636Z,78.0
2022-09-12T09:37:54.495Z,75.5
2022-09-12T09:57:51.653Z,72.0
2022-09-12T10:17:51.671Z,70.5
2022-09-12T10:37:52.337Z,68.0
2022-09-12T10:57:51.698Z,66.0
2022-09-12T11:17:51.705Z,60.5
2022-09-12T11:37:51.708Z,56.5
2022-09-12T11:57:51.723Z,57.5
2022-09-12T12:17:51.733Z,55.5
2022-09-12T12:37:51.744Z,53.0
2022-09-12T13:17:51.762Z,50.5
2022-09-12T13:37:51.786Z,50.0
2022-09-12T13:57:51.780Z,49.5
2022-09-12T14:17:51.793Z,47.5
2022-09-12T14:37:51.792Z,47.5
2022-09-12T14:57:51.818Z,47.0
2022-09-12T15:17:51.805Z,48.0
2022-09-12T15:37:51.823Z,47.5
2022-09-12T15:57:51.825Z,48.5
2022-09-12T16:17:51.833Z,48.5
2022-09-12T16:37:51.845Z,47.5
2022-09-12T16:57:51.849Z,48.0
2022-09-12T17:17:51.857Z,49.5
2022-09-12T17:37:51.858Z,51.0
2022-09-12T17:57:51.861Z,53.0
2022-09-12T18:17:51.864Z,55.0
2022-09-12T18:37:51.871Z,57.0
2022-09-12T18:57:51.886Z,59.5
2022-09-12T19:17:51.878Z,61.5
2022-09-12T19:37:51.888Z,63.0
2022-09-12T20:17:51.890Z,65.5
2022-09-12T20:37:51.893Z,66.5
2022-09-12T20:57:51.903Z,68.0
2022-09-12T23:17:51.953Z,72.5
